Time;durP1;ratioP1;P1;durP2;ratioP2;P2;SDS_P1;SDS_P2;PMS_P1;PMS_P2;Temp;Humidity;BMP_temperature;BMP_pressure;BME280_temperature;BME280_humidity;BME280_pressure;Samples;Min_cycle;Max_cycle;Signal;HPM_P1;HPM_P2
2023/05/05 00:00:08;;;;;;;;;;;12.50;55.70;;;;;;5008551;28;20422;-76
2023/05/05 00:02:33;;;;;;;;;;;12.50;55.70;;;;;;5012522;28;19928;-76
2023/05/05 00:04:59;;;;;;;;;;;12.40;55.70;;;;;;5009515;28;19921;-76
2023/05/05 00:07:24;;;;;;;;;;;12.40;55.80;;;;;;5018906;28;19921;-75
2023/05/05 00:09:50;;;;;;;;;;;12.40;55.80;;;;;;4994352;28;19928;-77
2023/05/05 00:12:15;;;;;;;;;;;12.30;55.80;;;;;;5015453;28;19928;-76
2023/05/05 00:14:41;;;;;;;;;;;12.30;56.00;;;;;;5012304;28;20435;-75
2023/05/05 00:17:06;;;;;;;;;;;12.20;55.90;;;;;;5013907;28;19924;-77
2023/05/05 00:19:32;;;;;;;;;;;12.20;56.00;;;;;;5030285;28;20007;-77
2023/05/05 00:21:57;;;;;;;;;;;12.20;56.00;;;;;;5012966;28;19922;-77
2023/05/05 00:24:23;;;;;;;;;;;12.10;55.90;;;;;;5031661;28;19924;-77
2023/05/05 00:26:48;;;;;;;;;;;12.10;56.00;;;;;;5014581;28;19924;-78
2023/05/05 00:29:14;;;;;;;;;;;12.10;56.00;;;;;;5028231;28;19987;-77
2023/05/05 00:31:40;;;;;;;;;;;12.00;56.00;;;;;;5025708;28;20238;-76
2023/05/05 00:34:05;;;;;;;;;;;12.00;56.10;;;;;;5012518;28;19921;-77
2023/05/05 00:36:31;;;;;;;;;;;12.00;56.10;;;;;;4996382;28;19927;-77
2023/05/05 00:38:56;;;;;;;;;;;11.90;56.10;;;;;;5028071;28;20403;-76
2023/05/05 00:41:22;;;;;;;;;;;11.90;56.80;;;;;;5014041;28;19929;-77
2023/05/05 00:43:47;;;;;;;;;;;11.80;56.20;;;;;;5011928;28;19956;-77
2023/05/05 00:46:16;;;;;;;;;;;11.80;56.90;;;;;;5010220;28;19925;-77
2023/05/05 00:48:42;;;;;;;;;;;11.80;56.30;;;;;;5011142;28;20438;-76
2023/05/05 00:51:09;;;;;;;;;;;11.80;56.30;;;;;;5000993;28;19930;-76
2023/05/05 00:53:34;;;;;;;;;;;11.70;56.30;;;;;;4995577;28;19957;-76
2023/05/05 00:56:00;;;;;;;;;;;11.70;56.30;;;;;;4998464;28;19923;-76
2023/05/05 00:58:25;;;;;;;;;;;11.70;56.40;;;;;;5014772;28;20328;-77
2023/05/05 01:00:51;;;;;;;;;;;11.70;56.40;;;;;;4999170;28;19924;-77
2023/05/05 01:03:16;;;;;;;;;;;11.60;56.30;;;;;;5014990;28;19925;-76
2023/05/05 01:05:47;;;;;;;;;;;11.60;56.40;;;;;;5030558;28;19939;-76
2023/05/05 01:08:21;;;;;;;;;;;11.60;56.40;;;;;;5010476;28;20848;-76
2023/05/05 01:10:56;;;;;;;;;;;11.60;56.40;;;;;;5031700;28;19928;-77
2023/05/05 01:13:36;;;;;;;;;;;11.50;56.40;;;;;;5012452;28;20023;-76
2023/05/05 01:16:01;;;;;;;;;;;11.50;56.50;;;;;;4995442;28;19916;-76
2023/05/05 01:18:27;;;;;;;;;;;11.50;56.50;;;;;;5012917;28;19921;-78
2023/05/05 01:20:55;;;;;;;;;;;11.50;56.50;;;;;;5012562;28;19921;-77
2023/05/05 01:23:36;;;;;;;;;;;11.50;56.50;;;;;;5029560;28;19921;-77
2023/05/05 01:26:08;;;;;;;;;;;11.50;56.50;;;;;;5011369;28;20429;-76
2023/05/05 01:28:52;;;;;;;;;;;11.50;56.60;;;;;;5014637;28;20582;-76
2023/05/05 01:31:37;;;;;;;;;;;11.40;56.60;;;;;;5013757;28;19921;-77
2023/05/05 01:34:06;;;;;;;;;;;11.40;56.60;;;;;;5012035;28;19932;-76
2023/05/05 01:36:34;;;;;;;;;;;11.40;56.60;;;;;;5011353;28;19921;-77
2023/05/05 01:38:59;;;;;;;;;;;11.40;56.60;;;;;;5010530;28;19930;-77
2023/05/05 01:41:27;;;;;;;;;;;11.40;56.70;;;;;;5028002;28;20393;-77
2023/05/05 01:43:52;;;;;;;;;;;11.40;56.70;;;;;;4995405;28;19925;-76
2023/05/05 01:46:17;;;;;;;;;;;11.40;56.70;;;;;;5011714;28;19925;-78
2023/05/05 01:48:43;;;;;;;;;;;11.40;56.70;;;;;;5027965;28;19921;-76
2023/05/05 01:51:08;;;;;;;;;;;11.40;56.70;;;;;;5002433;28;19925;-76
2023/05/05 01:53:34;;;;;;;;;;;11.40;56.80;;;;;;4992760;28;20364;-77
2023/05/05 01:55:59;;;;;;;;;;;11.40;56.70;;;;;;5030180;28;19935;-76
2023/05/05 01:58:25;;;;;;;;;;;11.30;56.70;;;;;;5014669;28;19925;-76
2023/05/05 02:00:50;;;;;;;;;;;11.30;56.70;;;;;;4994432;28;19928;-75
2023/05/05 02:03:16;;;;;;;;;;;11.30;56.70;;;;;;5028627;28;20011;-76
2023/05/05 02:05:42;;;;;;;;;;;11.30;56.80;;;;;;5023117;28;19932;-76
2023/05/05 02:08:07;;;;;;;;;;;11.30;56.80;;;;;;5012810;28;20011;-76
2023/05/05 02:10:33;;;;;;;;;;;11.40;56.80;;;;;;5011658;28;19968;-76
2023/05/05 02:12:59;;;;;;;;;;;11.30;56.80;;;;;;5011501;28;19921;-75
2023/05/05 02:15:24;;;;;;;;;;;11.30;56.80;;;;;;5014154;28;19921;-76
2023/05/05 02:17:51;;;;;;;;;;;11.30;56.80;;;;;;5030534;28;19925;-76
2023/05/05 02:20:17;;;;;;;;;;;11.30;56.90;;;;;;5009702;28;20640;-77
2023/05/05 02:22:42;;;;;;;;;;;11.30;56.80;;;;;;5028454;28;19987;-76
2023/05/05 02:25:08;;;;;;;;;;;11.30;56.90;;;;;;5016608;28;19928;-77
2023/05/05 02:27:34;;;;;;;;;;;11.30;56.90;;;;;;5029739;28;19921;-76
2023/05/05 02:30:00;;;;;;;;;;;11.30;56.90;;;;;;5011373;28;20850;-76
2023/05/05 02:32:31;;;;;;;;;;;11.30;56.90;;;;;;5008384;28;19921;-76
2023/05/05 02:34:57;;;;;;;;;;;11.30;56.90;;;;;;5027761;28;20350;-76
2023/05/05 02:37:23;;;;;;;;;;;11.30;56.90;;;;;;5011762;28;19968;-76
2023/05/05 02:39:57;;;;;;;;;;;11.30;56.90;;;;;;5009742;28;19921;-76
2023/05/05 02:42:24;;;;;;;;;;;11.30;57.00;;;;;;5010859;28;19925;-77
2023/05/05 02:44:50;;;;;;;;;;;11.20;57.00;;;;;;5004213;28;20544;-76
2023/05/05 02:47:16;;;;;;;;;;;11.20;56.90;;;;;;5007833;28;20454;-76
2023/05/05 02:49:41;;;;;;;;;;;11.20;57.00;;;;;;5021260;28;19921;-76
2023/05/05 02:52:07;;;;;;;;;;;11.20;57.00;;;;;;5010213;28;19932;-76
2023/05/05 02:54:32;;;;;;;;;;;11.20;57.00;;;;;;5026046;28;20011;-76
2023/05/05 02:56:58;;;;;;;;;;;11.20;57.00;;;;;;4980979;28;19925;-76
2023/05/05 02:59:32;;;;;;;;;;;11.20;57.00;;;;;;4995318;28;19920;-76
2023/05/05 03:01:58;;;;;;;;;;;11.20;57.10;;;;;;5006919;28;19925;-76
2023/05/05 03:04:28;;;;;;;;;;;11.10;57.00;;;;;;5025359;28;19921;-76
2023/05/05 03:06:57;;;;;;;;;;;11.20;57.10;;;;;;5004760;28;19933;-76
2023/05/05 03:09:44;;;;;;;;;;;11.10;57.10;;;;;;5028770;28;19973;-76
2023/05/05 03:12:10;;;;;;;;;;;11.10;57.20;;;;;;5009404;28;19971;-76
2023/05/05 03:14:40;;;;;;;;;;;11.10;57.10;;;;;;5026435;28;20043;-77
2023/05/05 03:17:05;;;;;;;;;;;11.10;57.20;;;;;;5011789;28;19921;-76
2023/05/05 03:19:31;;;;;;;;;;;11.10;57.20;;;;;;5010550;28;20536;-76
2023/05/05 03:21:57;;;;;;;;;;;11.10;57.20;;;;;;5009635;28;20020;-77
2023/05/05 03:24:22;;;;;;;;;;;11.10;57.20;;;;;;5010494;28;19921;-76
2023/05/05 03:26:48;;;;;;;;;;;11.00;57.20;;;;;;5025353;28;19925;-75
2023/05/05 03:29:14;;;;;;;;;;;11.00;57.30;;;;;;5027030;28;21091;-75
2023/05/05 03:31:39;;;;;;;;;;;11.00;57.30;;;;;;5027493;28;19928;-76
2023/05/05 03:34:05;;;;;;;;;;;11.00;57.30;;;;;;4995032;28;20479;-76
2023/05/05 03:36:30;;;;;;;;;;;10.90;57.30;;;;;;5010020;28;20020;-77
2023/05/05 03:38:56;;;;;;;;;;;10.90;57.20;;;;;;5009103;28;19928;-77
2023/05/05 03:41:22;;;;;;;;;;;10.90;57.30;;;;;;5010397;28;19928;-76
2023/05/05 03:43:48;;;;;;;;;;;10.90;57.30;;;;;;5008780;28;19916;-76
2023/05/05 03:46:14;;;;;;;;;;;10.80;57.30;;;;;;4993902;28;19985;-77
2023/05/05 03:48:40;;;;;;;;;;;10.80;57.40;;;;;;5005563;28;19960;-77
2023/05/05 03:51:06;;;;;;;;;;;10.80;57.40;;;;;;5008967;28;20007;-76
2023/05/05 03:53:31;;;;;;;;;;;10.80;57.40;;;;;;5026511;28;20021;-77
2023/05/05 03:55:57;;;;;;;;;;;10.70;57.40;;;;;;5004619;28;19920;-76
2023/05/05 03:58:22;;;;;;;;;;;10.70;57.50;;;;;;5001025;28;19925;-76
2023/05/05 04:00:48;;;;;;;;;;;10.70;57.50;;;;;;5023976;28;20038;-77
2023/05/05 04:03:13;;;;;;;;;;;10.70;57.60;;;;;;5022085;28;19921;-77
2023/05/05 04:05:39;;;;;;;;;;;10.70;57.60;;;;;;5023506;28;20016;-76
2023/05/05 04:08:04;;;;;;;;;;;10.60;57.60;;;;;;5023924;28;19921;-77
2023/05/05 04:10:30;;;;;;;;;;;10.60;57.60;;;;;;5026351;28;19924;-76
2023/05/05 04:12:55;;;;;;;;;;;10.60;57.60;;;;;;5025844;28;19967;-76
2023/05/05 04:15:21;;;;;;;;;;;10.50;57.60;;;;;;5027502;28;19925;-76
2023/05/05 04:17:46;;;;;;;;;;;10.50;57.70;;;;;;5027705;28;19960;-76
2023/05/05 04:20:12;;;;;;;;;;;10.40;57.70;;;;;;5026772;28;19929;-76
2023/05/05 04:22:37;;;;;;;;;;;10.40;57.70;;;;;;4993786;28;20000;-77
2023/05/05 04:25:03;;;;;;;;;;;10.40;57.80;;;;;;5027653;28;20302;-77
2023/05/05 04:27:29;;;;;;;;;;;10.40;57.80;;;;;;5013370;28;19917;-76
2023/05/05 04:29:55;;;;;;;;;;;10.30;57.80;;;;;;5025657;28;20560;-76
2023/05/05 04:32:20;;;;;;;;;;;10.30;57.90;;;;;;5010974;28;20531;-76
2023/05/05 04:34:46;;;;;;;;;;;10.30;57.90;;;;;;5012208;28;20000;-77
2023/05/05 04:37:12;;;;;;;;;;;10.30;57.90;;;;;;5027415;28;19925;-76
2023/05/05 04:39:37;;;;;;;;;;;10.30;57.90;;;;;;4996777;28;20550;-76
2023/05/05 04:42:03;;;;;;;;;;;10.30;57.90;;;;;;5014296;28;19924;-77
2023/05/05 04:44:28;;;;;;;;;;;10.30;58.00;;;;;;5001071;28;20144;-77
2023/05/05 04:46:54;;;;;;;;;;;10.30;58.00;;;;;;5013024;28;19939;-77
2023/05/05 04:49:19;;;;;;;;;;;10.30;58.00;;;;;;5016387;28;20403;-77
2023/05/05 04:51:45;;;;;;;;;;;10.30;58.00;;;;;;4993832;28;19920;-75
2023/05/05 04:54:11;;;;;;;;;;;10.30;58.00;;;;;;4998219;28;20527;-77
2023/05/05 04:56:36;;;;;;;;;;;10.30;58.00;;;;;;5031021;28;19921;-77
2023/05/05 04:59:01;;;;;;;;;;;10.20;58.00;;;;;;5032003;28;19921;-77
2023/05/05 05:01:27;;;;;;;;;;;10.30;58.10;;;;;;5011196;28;20370;-76
2023/05/05 05:03:52;;;;;;;;;;;10.30;58.00;;;;;;5014042;28;19932;-77
2023/05/05 05:06:18;;;;;;;;;;;10.30;58.10;;;;;;5010062;28;19936;-76
2023/05/05 05:08:43;;;;;;;;;;;10.30;58.10;;;;;;4995837;28;21028;-77
2023/05/05 05:11:09;;;;;;;;;;;10.30;58.00;;;;;;5010980;28;19932;-76
2023/05/05 05:13:34;;;;;;;;;;;10.30;58.00;;;;;;5013842;28;19931;-78
2023/05/05 05:16:00;;;;;;;;;;;10.40;58.10;;;;;;5010343;28;20011;-76
2023/05/05 05:18:25;;;;;;;;;;;10.40;58.00;;;;;;5012339;28;19921;-77
2023/05/05 05:20:51;;;;;;;;;;;10.50;58.00;;;;;;5009121;28;19928;-77
2023/05/05 05:23:16;;;;;;;;;;;10.50;58.00;;;;;;5032042;28;19921;-76
2023/05/05 05:25:42;;;;;;;;;;;10.50;58.00;;;;;;5029125;28;19925;-76
2023/05/05 05:28:07;;;;;;;;;;;10.60;58.10;;;;;;5012049;28;20465;-77
2023/05/05 05:30:33;;;;;;;;;;;10.60;58.00;;;;;;5012344;28;20258;-77
2023/05/05 05:32:58;;;;;;;;;;;10.70;58.00;;;;;;5030521;28;19928;-77
2023/05/05 05:35:24;;;;;;;;;;;10.80;58.00;;;;;;5015674;28;19921;-77
2023/05/05 05:37:50;;;;;;;;;;;10.80;58.00;;;;;;5013418;28;19920;-77
2023/05/05 05:40:16;;;;;;;;;;;10.90;58.70;;;;;;5013151;28;20831;-77
2023/05/05 05:42:41;;;;;;;;;;;10.90;57.90;;;;;;5013645;28;20048;-77
2023/05/05 05:45:07;;;;;;;;;;;11.00;57.90;;;;;;5012139;28;19921;-77
2023/05/05 05:47:32;;;;;;;;;;;11.00;57.90;;;;;;5028875;28;20011;-77
2023/05/05 05:49:58;;;;;;;;;;;11.10;57.80;;;;;;5011236;28;20007;-77
2023/05/05 05:52:23;;;;;;;;;;;11.20;57.90;;;;;;4999101;28;19995;-77
2023/05/05 05:54:49;;;;;;;;;;;11.20;57.80;;;;;;5011552;28;19921;-77
2023/05/05 05:57:14;;;;;;;;;;;11.30;57.80;;;;;;5027244;28;20691;-76
2023/05/05 05:59:40;;;;;;;;;;;11.40;57.80;;;;;;5010887;28;19925;-77
2023/05/05 06:02:06;;;;;;;;;;;11.40;57.70;;;;;;5012240;28;19924;-77
2023/05/05 06:04:31;;;;;;;;;;;11.40;57.70;;;;;;4997958;28;19994;-77
2023/05/05 06:06:57;;;;;;;;;;;11.60;57.70;;;;;;5012760;28;19967;-77
2023/05/05 06:09:22;;;;;;;;;;;11.60;57.70;;;;;;5010900;28;20501;-77
2023/05/05 06:11:48;;;;;;;;;;;11.70;57.60;;;;;;5026059;28;19921;-77
2023/05/05 06:14:13;;;;;;;;;;;11.70;57.60;;;;;;5012012;28;20420;-76
2023/05/05 06:16:39;;;;;;;;;;;11.90;57.60;;;;;;5026603;28;19978;-75
2023/05/05 06:19:08;;;;;;;;;;;11.90;57.60;;;;;;5012482;28;19956;-76
2023/05/05 06:21:36;;;;;;;;;;;12.00;57.50;;;;;;5015530;28;20395;-77
2023/05/05 06:24:02;;;;;;;;;;;12.10;57.50;;;;;;5011581;28;20303;-77
2023/05/05 06:26:27;;;;;;;;;;;12.20;57.40;;;;;;5002082;28;19928;-77
2023/05/05 06:28:53;;;;;;;;;;;12.40;57.40;;;;;;4998336;28;20698;-76
2023/05/05 06:31:18;;;;;;;;;;;12.40;57.30;;;;;;5011102;28;19960;-77
2023/05/05 06:33:44;;;;;;;;;;;12.60;57.20;;;;;;5012363;28;19975;-77
2023/05/05 06:36:09;;;;;;;;;;;12.70;57.20;;;;;;4995959;28;19947;-76
2023/05/05 06:38:35;;;;;;;;;;;12.80;57.10;;;;;;5027680;28;19956;-77
2023/05/05 06:41:00;;;;;;;;;;;13.00;57.10;;;;;;5026427;28;19964;-77
2023/05/05 06:43:26;;;;;;;;;;;13.10;57.00;;;;;;5011304;28;19931;-76
2023/05/05 06:45:52;;;;;;;;;;;13.20;56.90;;;;;;5029215;28;19925;-77
2023/05/05 06:48:19;;;;;;;;;;;13.40;56.80;;;;;;5011559;28;20292;-77
2023/05/05 06:50:44;;;;;;;;;;;13.50;56.80;;;;;;5026043;28;20038;-77
2023/05/05 06:53:10;;;;;;;;;;;13.60;56.60;;;;;;5009417;28;19928;-77
2023/05/05 06:55:36;;;;;;;;;;;13.70;56.50;;;;;;5011553;28;19916;-77
2023/05/05 06:58:01;;;;;;;;;;;13.90;56.50;;;;;;5022104;28;20415;-77
2023/05/05 07:00:27;;;;;;;;;;;14.00;56.40;;;;;;4994118;28;19921;-76
2023/05/05 07:02:52;;;;;;;;;;;14.10;56.30;;;;;;5010089;28;19920;-77
2023/05/05 07:05:18;;;;;;;;;;;14.30;56.20;;;;;;5008316;28;19921;-77
2023/05/05 07:07:53;;;;;;;;;;;14.40;56.20;;;;;;5029763;28;19928;-77
2023/05/05 07:10:18;;;;;;;;;;;14.50;56.10;;;;;;5001483;28;19924;-77
2023/05/05 07:12:44;;;;;;;;;;;14.70;56.00;;;;;;5011700;28;19920;-77
2023/05/05 07:15:09;;;;;;;;;;;14.80;55.80;;;;;;5006787;28;20000;-77
2023/05/05 07:17:35;;;;;;;;;;;15.00;55.80;;;;;;5028964;28;20291;-77
2023/05/05 07:20:00;;;;;;;;;;;15.10;55.70;;;;;;5024274;28;19921;-76
2023/05/05 07:22:26;;;;;;;;;;;15.30;55.70;;;;;;5009736;28;20343;-76
2023/05/05 07:24:52;;;;;;;;;;;15.40;55.50;;;;;;5008744;28;19921;-77
2023/05/05 07:27:18;;;;;;;;;;;15.60;55.40;;;;;;5008563;28;20653;-77
2023/05/05 07:29:43;;;;;;;;;;;15.80;55.30;;;;;;5006181;28;19921;-76
2023/05/05 07:32:08;;;;;;;;;;;15.90;55.80;;;;;;5011539;28;20039;-78
2023/05/05 07:34:36;;;;;;;;;;;16.10;55.10;;;;;;5026917;28;20327;-77
2023/05/05 07:37:05;;;;;;;;;;;16.20;55.00;;;;;;5008027;28;20309;-77
2023/05/05 07:39:31;;;;;;;;;;;16.40;54.90;;;;;;5009235;28;19917;-77
2023/05/05 07:41:56;;;;;;;;;;;16.50;54.80;;;;;;5006755;28;20276;-76
2023/05/05 07:44:22;;;;;;;;;;;16.70;54.60;;;;;;5010277;28;19917;-77
2023/05/05 07:46:47;;;;;;;;;;;16.80;54.50;;;;;;5028794;28;19929;-77
2023/05/05 07:49:13;;;;;;;;;;;16.90;54.40;;;;;;5008072;28;19928;-77
2023/05/05 07:51:38;;;;;;;;;;;17.10;54.50;;;;;;4986021;28;20310;-76
2023/05/05 07:54:04;;;;;;;;;;;17.20;54.40;;;;;;5008656;28;20342;-77
2023/05/05 07:56:29;;;;;;;;;;;17.40;54.20;;;;;;4993115;28;19917;-77
2023/05/05 07:58:55;;;;;;;;;;;17.50;54.10;;;;;;4991745;28;20040;-77
2023/05/05 08:01:20;;;;;;;;;;;17.70;54.00;;;;;;5010911;28;19986;-77
2023/05/05 08:03:46;;;;;;;;;;;17.90;54.60;;;;;;5013003;28;20023;-77
2023/05/05 08:06:14;;;;;;;;;;;18.00;53.80;;;;;;5024862;28;19979;-77
2023/05/05 08:08:40;;;;;;;;;;;18.20;53.70;;;;;;5010853;28;20453;-77
2023/05/05 08:11:05;;;;;;;;;;;18.30;53.60;;;;;;5006757;28;19924;-77
2023/05/05 08:13:31;;;;;;;;;;;18.50;53.50;;;;;;5028463;28;20296;-77
2023/05/05 08:15:56;;;;;;;;;;;18.80;53.40;;;;;;5012344;28;19921;-77
2023/05/05 08:18:23;;;;;;;;;;;19.00;53.30;;;;;;5029754;28;20406;-77
2023/05/05 08:20:49;;;;;;;;;;;19.10;53.10;;;;;;5011093;28;19925;-78
2023/05/05 08:23:15;;;;;;;;;;;19.30;53.00;;;;;;5010090;28;19925;-78
2023/05/05 08:25:40;;;;;;;;;;;19.40;52.90;;;;;;5013955;28;19985;-77
2023/05/05 08:28:05;;;;;;;;;;;19.50;52.80;;;;;;5010930;28;20288;-77
2023/05/05 08:30:31;;;;;;;;;;;19.60;52.70;;;;;;5033144;28;19925;-77
2023/05/05 08:32:57;;;;;;;;;;;19.70;52.70;;;;;;5029108;28;20451;-77
2023/05/05 08:35:23;;;;;;;;;;;19.90;52.60;;;;;;4996584;28;19979;-78
2023/05/05 08:37:49;;;;;;;;;;;20.10;52.50;;;;;;5013931;28;19925;-77
2023/05/05 08:40:14;;;;;;;;;;;20.30;52.40;;;;;;5012658;28;20549;-77
2023/05/05 08:42:40;;;;;;;;;;;20.50;52.20;;;;;;5017925;28;20395;-78
2023/05/05 08:45:09;;;;;;;;;;;20.70;52.10;;;;;;5009184;28;20696;-77
2023/05/05 08:47:34;;;;;;;;;;;20.80;52.00;;;;;;4996267;28;19932;-78
2023/05/05 08:50:00;;;;;;;;;;;20.90;51.80;;;;;;5030028;28;19917;-77
2023/05/05 08:52:27;;;;;;;;;;;21.10;51.80;;;;;;5009359;28;19921;-77
2023/05/05 08:54:54;;;;;;;;;;;21.30;51.80;;;;;;5009281;28;19925;-76
2023/05/05 08:57:29;;;;;;;;;;;21.40;51.60;;;;;;5008872;28;19971;-77
2023/05/05 08:59:54;;;;;;;;;;;21.50;51.50;;;;;;5008363;28;19925;-78
2023/05/05 09:02:22;;;;;;;;;;;21.70;51.50;;;;;;5000269;28;20318;-77
2023/05/05 09:04:49;;;;;;;;;;;21.90;51.30;;;;;;5014296;28;20308;-78
2023/05/05 09:07:14;;;;;;;;;;;22.00;51.10;;;;;;5012528;28;20347;-78
2023/05/05 09:09:40;;;;;;;;;;;22.20;51.10;;;;;;5025460;28;19927;-78
2023/05/05 09:12:05;;;;;;;;;;;22.40;50.90;;;;;;4995560;28;19944;-77
2023/05/05 09:14:30;;;;;;;;;;;22.60;50.80;;;;;;5019466;28;20039;-78
2023/05/05 09:16:56;;;;;;;;;;;22.80;50.70;;;;;;5001281;28;20009;-77
2023/05/05 09:19:21;;;;;;;;;;;23.00;50.60;;;;;;5020758;28;20547;-77
2023/05/05 09:21:50;;;;;;;;;;;23.10;50.40;;;;;;4996652;28;19936;-77
2023/05/05 09:24:15;;;;;;;;;;;23.40;50.40;;;;;;4996800;28;19925;-78
2023/05/05 09:26:41;;;;;;;;;;;23.50;50.20;;;;;;4996426;28;19936;-78
2023/05/05 09:29:07;;;;;;;;;;;23.60;50.10;;;;;;5008609;28;19924;-78
2023/05/05 09:31:33;;;;;;;;;;;23.70;50.00;;;;;;5007578;28;19985;-77
2023/05/05 09:33:59;;;;;;;;;;;23.80;50.00;;;;;;5006495;28;19928;-78
2023/05/05 09:36:48;;;;;;;;;;;23.90;49.90;;;;;;5009981;28;20613;-76
2023/05/05 09:39:17;;;;;;;;;;;24.10;49.90;;;;;;5016368;28;19925;-77
2023/05/05 09:41:43;;;;;;;;;;;24.30;49.80;;;;;;5009210;28;19929;-77
2023/05/05 09:44:08;;;;;;;;;;;24.50;49.70;;;;;;4992106;28;19924;-77
2023/05/05 09:46:34;;;;;;;;;;;24.70;49.40;;;;;;5002704;28;19936;-77
2023/05/05 09:49:16;;;;;;;;;;;24.80;49.30;;;;;;5009720;28;19967;-77
2023/05/05 09:51:45;;;;;;;;;;;25.00;49.20;;;;;;5026884;28;20312;-77
2023/05/05 09:54:27;;;;;;;;;;;25.30;49.10;;;;;;5008356;28;19920;-78
2023/05/05 09:56:52;;;;;;;;;;;25.40;49.00;;;;;;5011198;28;20633;-76
2023/05/05 09:59:18;;;;;;;;;;;25.50;49.00;;;;;;5012554;28;19999;-77
2023/05/05 10:01:43;;;;;;;;;;;25.70;48.90;;;;;;5012170;28;20019;-77
2023/05/05 10:04:25;;;;;;;;;;;25.90;48.80;;;;;;5012075;28;20296;-77
2023/05/05 10:06:50;;;;;;;;;;;26.10;48.70;;;;;;5009620;28;20312;-77
2023/05/05 10:09:16;;;;;;;;;;;26.30;48.60;;;;;;5010030;28;19931;-77
2023/05/05 10:11:41;;;;;;;;;;;26.50;48.50;;;;;;5008774;28;19994;-78
2023/05/05 10:14:07;;;;;;;;;;;26.60;48.30;;;;;;4993209;28;20439;-78
2023/05/05 10:16:32;;;;;;;;;;;26.80;48.20;;;;;;5021920;28;21370;-78
2023/05/05 10:19:00;;;;;;;;;;;27.00;48.10;;;;;;5020327;28;19921;-78
2023/05/05 10:21:26;;;;;;;;;;;27.20;48.00;;;;;;5003692;28;19917;-77
2023/05/05 10:23:56;;;;;;;;;;;27.40;48.00;;;;;;5003377;28;19921;-78
2023/05/05 10:26:22;;;;;;;;;;;27.60;47.90;;;;;;5023453;28;20466;-77
2023/05/05 10:28:54;;;;;;;;;;;27.80;47.80;;;;;;5005969;28;20775;-77
2023/05/05 10:31:20;;;;;;;;;;;28.00;47.70;;;;;;5019261;28;19932;-75
2023/05/05 10:33:55;;;;;;;;;;;28.10;47.50;;;;;;5022190;28;19921;-78
2023/05/05 10:36:20;;;;;;;;;;;28.10;47.40;;;;;;5004679;28;20004;-77
2023/05/05 10:38:46;;;;;;;;;;;28.20;47.40;;;;;;5013740;28;20012;-78
2023/05/05 10:41:12;;;;;;;;;;;28.30;47.50;;;;;;4990647;28;19920;-77
2023/05/05 10:43:37;;;;;;;;;;;28.40;47.50;;;;;;5012317;28;19921;-78
2023/05/05 10:46:03;;;;;;;;;;;28.50;47.40;;;;;;5004837;28;19931;-77
2023/05/05 10:48:47;;;;;;;;;;;28.70;47.40;;;;;;5005183;28;19921;-78
2023/05/05 10:51:26;;;;;;;;;;;28.80;47.30;;;;;;5004361;28;19931;-78
2023/05/05 10:53:54;;;;;;;;;;;29.00;47.20;;;;;;5020392;28;20451;-76
2023/05/05 10:56:26;;;;;;;;;;;29.20;47.10;;;;;;5022066;28;20611;-76
2023/05/05 10:58:52;;;;;;;;;;;29.30;47.00;;;;;;5021619;28;19924;-77
2023/05/05 11:01:49;;;;;;;;;;;29.40;47.00;;;;;;5004412;28;19929;-76
2023/05/05 11:04:18;;;;;;;;;;;29.40;46.90;;;;;;5012541;28;19925;-76
2023/05/05 11:07:02;;;;;;;;;;;29.40;46.90;;;;;;5006275;28;20494;-75
2023/05/05 11:09:28;;;;;;;;;;;29.40;46.90;;;;;;5023707;28;19971;-76
2023/05/05 11:12:05;;;;;;;;;;;29.30;47.00;;;;;;5004789;28;19924;-77
2023/05/05 11:14:31;;;;;;;;;;;29.30;47.10;;;;;;5004553;28;19934;-76
2023/05/05 11:16:56;;;;;;;;;;;29.30;47.10;;;;;;5003827;28;19925;-75
2023/05/05 11:19:43;;;;;;;;;;;29.30;47.10;;;;;;5019481;28;20431;-77
2023/05/05 11:22:09;;;;;;;;;;;29.30;47.10;;;;;;5004425;28;19932;-76
2023/05/05 11:24:38;;;;;;;;;;;29.30;47.10;;;;;;5006260;28;19951;-78
2023/05/05 11:27:04;;;;;;;;;;;29.40;47.20;;;;;;4987750;28;19928;-77
2023/05/05 11:29:48;;;;;;;;;;;29.30;47.10;;;;;;5021917;28;19921;-76
2023/05/05 11:32:14;;;;;;;;;;;29.20;47.10;;;;;;5022200;28;19987;-76
2023/05/05 11:34:46;;;;;;;;;;;29.20;47.20;;;;;;5005475;28;19928;-77
2023/05/05 11:37:12;;;;;;;;;;;29.30;47.30;;;;;;5005749;28;19921;-76
2023/05/05 11:39:50;;;;;;;;;;;29.40;47.20;;;;;;5003280;28;19979;-77
2023/05/05 11:42:23;;;;;;;;;;;29.40;47.20;;;;;;5018933;28;20038;-76
2023/05/05 11:44:48;;;;;;;;;;;29.50;47.10;;;;;;5018605;28;20023;-78
2023/05/05 11:47:14;;;;;;;;;;;29.60;47.00;;;;;;5005235;28;19935;-78
2023/05/05 11:49:39;;;;;;;;;;;29.60;46.90;;;;;;5029639;28;19973;-77
2023/05/05 11:52:05;;;;;;;;;;;29.70;46.90;;;;;;5008934;28;20337;-77
2023/05/05 11:54:31;;;;;;;;;;;29.70;46.90;;;;;;5029121;28;20043;-77
2023/05/05 11:56:57;;;;;;;;;;;29.80;46.90;;;;;;4993928;28;21518;-76
2023/05/05 11:59:23;;;;;;;;;;;29.90;46.90;;;;;;5029770;28;19931;-76
2023/05/05 12:01:48;;;;;;;;;;;30.00;46.80;;;;;;5008114;28;19925;-77
2023/05/05 12:04:14;;;;;;;;;;;30.00;46.70;;;;;;5002229;28;19925;-77
2023/05/05 12:06:39;;;;;;;;;;;30.10;46.70;;;;;;5009244;28;19951;-78
2023/05/05 12:09:05;;;;;;;;;;;30.30;46.70;;;;;;5026598;28;19957;-76
2023/05/05 12:11:30;;;;;;;;;;;30.40;46.60;;;;;;4998006;28;19925;-77
2023/05/05 12:14:09;;;;;;;;;;;30.40;46.50;;;;;;5017436;28;19947;-77
2023/05/05 12:16:34;;;;;;;;;;;30.50;46.40;;;;;;5010530;28;20138;-78
2023/05/05 12:19:06;;;;;;;;;;;30.50;46.30;;;;;;5008893;28;19928;-76
2023/05/05 12:21:32;;;;;;;;;;;30.50;46.40;;;;;;5031380;28;19999;-76
2023/05/05 12:23:58;;;;;;;;;;;30.40;46.40;;;;;;5027304;28;20445;-77
2023/05/05 12:26:24;;;;;;;;;;;30.40;46.30;;;;;;5010644;28;20470;-76
2023/05/05 12:28:50;;;;;;;;;;;30.30;46.40;;;;;;5025698;28;20395;-76
2023/05/05 12:31:15;;;;;;;;;;;30.20;46.30;;;;;;5010737;28;19925;-76
2023/05/05 12:33:41;;;;;;;;;;;30.20;46.50;;;;;;5027146;28;19975;-77
2023/05/05 12:36:06;;;;;;;;;;;30.20;46.50;;;;;;5009569;28;19927;-76
2023/05/05 12:38:32;;;;;;;;;;;30.20;46.50;;;;;;5011984;28;19956;-77
2023/05/05 12:40:57;;;;;;;;;;;30.20;46.50;;;;;;5009845;28;19920;-76
2023/05/05 12:43:23;;;;;;;;;;;30.20;46.50;;;;;;4993300;28;19924;-77
2023/05/05 12:45:57;;;;;;;;;;;30.20;46.40;;;;;;5011644;28;21721;-77
2023/05/05 12:48:23;;;;;;;;;;;30.20;46.40;;;;;;5012037;28;19921;-77
2023/05/05 12:50:48;;;;;;;;;;;30.20;46.30;;;;;;5009580;28;19925;-76
2023/05/05 12:53:23;;;;;;;;;;;30.20;46.40;;;;;;5012240;28;19927;-77
2023/05/05 12:55:49;;;;;;;;;;;30.10;46.40;;;;;;4987984;28;19925;-77
2023/05/05 12:58:14;;;;;;;;;;;30.20;46.40;;;;;;4994018;28;21670;-77
2023/05/05 13:00:40;;;;;;;;;;;30.20;47.00;;;;;;5005695;28;19925;-76
2023/05/05 13:03:05;;;;;;;;;;;30.30;46.40;;;;;;5007447;28;20954;-76
2023/05/05 13:05:35;;;;;;;;;;;30.40;46.30;;;;;;5021449;28;19936;-77
2023/05/05 13:08:00;;;;;;;;;;;30.40;46.20;;;;;;5023461;28;20022;-77
2023/05/05 13:10:27;;;;;;;;;;;30.40;45.90;;;;;;5028276;28;20447;-77
2023/05/05 13:12:56;;;;;;;;;;;30.50;46.10;;;;;;5019696;28;20563;-77
2023/05/05 13:15:22;;;;;;;;;;;30.50;46.00;;;;;;5007691;28;19920;-76
2023/05/05 13:17:47;;;;;;;;;;;30.50;45.90;;;;;;4978879;28;20020;-76
2023/05/05 13:20:13;;;;;;;;;;;30.40;45.90;;;;;;5023072;28;19921;-76
2023/05/05 13:22:38;;;;;;;;;;;30.40;45.90;;;;;;5024019;28;20504;-77
2023/05/05 13:25:04;;;;;;;;;;;30.40;45.90;;;;;;5005291;28;19940;-76
2023/05/05 13:27:29;;;;;;;;;;;30.30;45.80;;;;;;5022403;28;19976;-76
2023/05/05 13:29:55;;;;;;;;;;;30.30;45.90;;;;;;5014414;28;19926;-77
2023/05/05 13:32:20;;;;;;;;;;;30.30;45.90;;;;;;5002634;28;19932;-77
2023/05/05 13:34:46;;;;;;;;;;;30.30;46.00;;;;;;5001886;28;20561;-76
2023/05/05 13:37:11;;;;;;;;;;;30.20;45.90;;;;;;4988551;28;19921;-77
2023/05/05 13:39:37;;;;;;;;;;;30.20;45.90;;;;;;5006573;28;19921;-77
2023/05/05 13:42:02;;;;;;;;;;;30.20;46.00;;;;;;5007482;28;20615;-76
2023/05/05 13:44:28;;;;;;;;;;;30.20;46.00;;;;;;5023171;28;19976;-76
2023/05/05 13:46:53;;;;;;;;;;;30.40;46.00;;;;;;5003754;28;20015;-77
2023/05/05 13:49:19;;;;;;;;;;;30.50;45.80;;;;;;5005118;28;19983;-76
2023/05/05 13:51:45;;;;;;;;;;;30.60;45.70;;;;;;5025186;28;19946;-77
2023/05/05 13:54:11;;;;;;;;;;;30.80;45.50;;;;;;5024446;28;19925;-76
2023/05/05 13:56:36;;;;;;;;;;;30.80;45.30;;;;;;5021388;28;19970;-76
2023/05/05 13:59:02;;;;;;;;;;;30.80;45.20;;;;;;4994258;28;19925;-78
2023/05/05 14:01:27;;;;;;;;;;;30.80;45.10;;;;;;5009468;28;19925;-77
2023/05/05 14:03:53;;;;;;;;;;;30.60;45.20;;;;;;5006560;28;19927;-76
2023/05/05 14:06:18;;;;;;;;;;;30.60;45.20;;;;;;5024222;28;19929;-77
2023/05/05 14:08:45;;;;;;;;;;;30.50;45.30;;;;;;5021311;28;19925;-76
2023/05/05 14:11:10;;;;;;;;;;;30.50;45.40;;;;;;5024401;28;20423;-76
2023/05/05 14:13:36;;;;;;;;;;;30.40;45.40;;;;;;5025060;28;19973;-77